Pagina principale
METAR-TAF:

METAR-TAF

Aeroporti :

Aeroporto Internazionale di Minneapolis-Saint Paul-Wold-Chamberlain

Minneapolis, Minnesota, Stati Uniti

latitudine: 44-52-59N, longitudine: 093-13-44W, altezza: 256 m

Osservazione

Il bollettino è stato emesso 48 minuti fa, alle 11:53 UTC
Vento 4 kt da nord
Temperature -3°C
Umidità 68%
Pressione 1025 hPa
Visibilità: 16.1 km
Cielo sereno

METAR: KMSP 171153Z 01004KT 10SM CLR M03/M08 A3027 RMK AO2 SLP259 4/003 T10331078 11006 21039 53002

Ora: 06:41 (12:41 UTC)

Previsione

Il bollettino è stato emesso 1 ora e 17 minuti fa, alle 11:24 UTC
Previsione valida dal 17 alle 12 UTC al 18 alle 18 UTC
Vento 3 kt da direzioni variabili
Visibilità: 10 km
Poco nuvoloso ad un'altezza di 15000 ft
A partire da 17 alle 1800 UTC
Vento 6 kt da est/sud-est
Visibilità: 10 km
Cielo sereno

TAF: KMSP 171124Z 1712/1818 VRB03KT P6SM FEW150 FM171800 12006KT P6SM SKC

Osservazioni e previsioni meteorologiche di più di 4000 aeroporti (messaggi METAR e TAF).

Le stazioni disponibili sono rappresentate dai dischi gialli e rossi sulla carta.

Puntare il mouse per vedere il nome della stazione.

Clicca sopra per visualizzare le osservazioni e previsioni meteorologiche.

Per cambiare la mappa : fare clic sui pulsanti verdi con una croce nera per ingrandire, il pulsante verde con un trattino per diminuire, o sulla freccia verde per le mappe adiacenti.


METAR-TAF: